Hlavní strana
METAR-TAF:

METAR-TAF

Letiště :

Havana, Kuba

zeměpisná šířka: 22-59N, zeměpisná délka: 082-24W, výška: 59 m

Aktuální stav počasí

Zpráva byla vytvořena před 1 hodinou a 11 minutami, v 04:55 UTC
Východní vítr 2 kt
Teplota 21°C
Vlhkost vzduchu 94%
Tlak 1017 hPa
Viditelnost: 9000 m
Skoro jasno ve výšce 2500 ft

METAR: MUHA 230455Z 09002KT 9000 FEW025 21/20 Q1017

Čas: 01:06 (06:06 UTC)

Předpověď počasí

Zpráva byla vytvořena před 1 hodinou a 6 minutami, v 05:00 UTC
Předpověď platná od 23 v 06 UTC do 24 v 06 UTC
Východní vítr 3 kt
Viditelnost: 9000 m
Skoro jasno ve výšce 2500 ft
Dočasný
od 23 v 08 UTC do 23 v 11 UTC
Viditelnost: 5000 m
kouřmo
Změna
od 23 v 13 UTC do 23 v 15 UTC
Jihojihovýchodní vítr 10 kt
Změna
od 24 v 01 UTC do 24 v 02 UTC
vítr z různých směrů 3 kt

TAF: MUHA 230500Z 2306/2406 09003KT 9000 FEW025 TEMPO 2308/2311 5000 BR BECMG 2313/2315 16010KT BECMG 2401/2402 VRB03KT

Stav a předpovědi počasí z více než 4 000 letišť (zprávy METAR a TAF).

Červené a žluté tečky na mapě představují dostupné meteorologické stanice.

Když kurzor umístíte na tečku, zobrazí se název stanice.

Pak kliknutím zobrazíte stav a předpověď počasí.

Chcete-li změnit mapu, kliknutím na zelené tlačítko se znaménkem +mapu přiblížíte, kliknutím na zelené tlačítko se znaménkem – mapu oddálíte a kliknutím na zelené šipky přejdete na sousední mapy.


METAR-TAF: